sensor_id;sensor_type;location;lat;lon;timestamp;P1;durP1;ratioP1;P2;durP2;ratioP2
1753;SDS011;58380;48.312;9.246;2024-03-23T08:00:38;1.60;;;0.70;;
1753;SDS011;58380;48.312;9.246;2024-03-23T08:03:39;2.05;;;1.02;;
1753;SDS011;58380;48.312;9.246;2024-03-23T08:06:44;2.47;;;1.00;;
1753;SDS011;58380;48.312;9.246;2024-03-23T08:09:45;5.03;;;2.08;;
1753;SDS011;58380;48.312;9.246;2024-03-23T08:12:45;4.65;;;1.65;;
1753;SDS011;58380;48.312;9.246;2024-03-23T08:15:46;1.23;;;0.80;;
1753;SDS011;58380;48.312;9.246;2024-03-23T08:18:46;1.40;;;0.52;;
1753;SDS011;58380;48.312;9.246;2024-03-23T08:21:47;1.00;;;0.50;;
1753;SDS011;58380;48.312;9.246;2024-03-23T08:24:47;2.13;;;1.20;;
1753;SDS011;58380;48.312;9.246;2024-03-23T08:27:48;1.20;;;0.65;;
1753;SDS011;58380;48.312;9.246;2024-03-23T08:30:48;0.75;;;0.50;;
1753;SDS011;58380;48.312;9.246;2024-03-23T08:33:49;1.20;;;0.70;;
1753;SDS011;58380;48.312;9.246;2024-03-23T08:36:49;2.40;;;0.80;;
1753;SDS011;58380;48.312;9.246;2024-03-23T08:39:50;2.25;;;0.95;;
1753;SDS011;58380;48.312;9.246;2024-03-23T08:42:51;3.30;;;1.15;;
1753;SDS011;58380;48.312;9.246;2024-03-23T08:45:51;3.25;;;1.20;;
1753;SDS011;58380;48.312;9.246;2024-03-23T08:48:52;1.90;;;0.90;;
1753;SDS011;58380;48.312;9.246;2024-03-23T08:51:53;2.53;;;1.30;;
1753;SDS011;58380;48.312;9.246;2024-03-23T08:54:54;3.55;;;1.40;;
1753;SDS011;58380;48.312;9.246;2024-03-23T08:57:55;4.60;;;1.70;;
1753;SDS011;58380;48.312;9.246;2024-03-23T09:00:57;3.90;;;1.63;;
1753;SDS011;58380;48.312;9.246;2024-03-23T09:04:05;5.35;;;1.60;;
1753;SDS011;58380;48.312;9.246;2024-03-23T09:07:05;4.00;;;1.88;;
1753;SDS011;58380;48.312;9.246;2024-03-23T09:10:06;4.00;;;2.00;;
1753;SDS011;58380;48.312;9.246;2024-03-23T09:13:07;5.63;;;1.80;;
1753;SDS011;58380;48.312;9.246;2024-03-23T09:16:08;4.57;;;1.92;;
1753;SDS011;58380;48.312;9.246;2024-03-23T09:19:09;5.60;;;2.03;;
1753;SDS011;58380;48.312;9.246;2024-03-23T09:22:10;9.05;;;3.20;;
1753;SDS011;58380;48.312;9.246;2024-03-23T09:25:10;5.15;;;2.75;;
1753;SDS011;58380;48.312;9.246;2024-03-23T09:28:10;3.88;;;2.20;;
1753;SDS011;58380;48.312;9.246;2024-03-23T09:31:11;5.85;;;2.88;;
1753;SDS011;58380;48.312;9.246;2024-03-23T09:34:14;6.68;;;2.70;;
1753;SDS011;58380;48.312;9.246;2024-03-23T09:37:15;8.20;;;2.72;;
1753;SDS011;58380;48.312;9.246;2024-03-23T09:40:15;7.45;;;3.53;;
1753;SDS011;58380;48.312;9.246;2024-03-23T09:43:16;8.32;;;2.92;;
1753;SDS011;58380;48.312;9.246;2024-03-23T09:46:16;5.60;;;2.60;;
1753;SDS011;58380;48.312;9.246;2024-03-23T09:49:17;7.22;;;3.28;;
1753;SDS011;58380;48.312;9.246;2024-03-23T09:52:19;8.82;;;2.88;;
1753;SDS011;58380;48.312;9.246;2024-03-23T09:55:19;7.22;;;2.95;;
1753;SDS011;58380;48.312;9.246;2024-03-23T09:58:20;6.40;;;2.90;;
1753;SDS011;58380;48.312;9.246;2024-03-23T10:01:23;6.80;;;2.80;;
1753;SDS011;58380;48.312;9.246;2024-03-23T10:04:40;5.85;;;2.90;;
1753;SDS011;58380;48.312;9.246;2024-03-23T10:07:42;6.80;;;2.90;;
1753;SDS011;58380;48.312;9.246;2024-03-23T10:10:43;8.70;;;3.20;;
1753;SDS011;58380;48.312;9.246;2024-03-23T10:13:46;7.43;;;2.85;;
1753;SDS011;58380;48.312;9.246;2024-03-23T10:16:47;7.85;;;2.83;;
1753;SDS011;58380;48.312;9.246;2024-03-23T10:19:48;8.02;;;2.88;;
1753;SDS011;58380;48.312;9.246;2024-03-23T10:22:50;6.13;;;2.88;;
1753;SDS011;58380;48.312;9.246;2024-03-23T10:25:51;5.90;;;2.90;;
1753;SDS011;58380;48.312;9.246;2024-03-23T10:28:55;10.48;;;3.60;;
1753;SDS011;58380;48.312;9.246;2024-03-23T10:32:07;6.10;;;3.00;;
1753;SDS011;58380;48.312;9.246;2024-03-23T10:35:21;9.38;;;3.47;;
1753;SDS011;58380;48.312;9.246;2024-03-23T10:38:22;6.60;;;2.95;;
1753;SDS011;58380;48.312;9.246;2024-03-23T10:41:22;7.43;;;3.47;;
1753;SDS011;58380;48.312;9.246;2024-03-23T10:44:30;9.73;;;3.80;;
1753;SDS011;58380;48.312;9.246;2024-03-23T10:47:31;11.07;;;3.72;;
1753;SDS011;58380;48.312;9.246;2024-03-23T10:50:32;10.98;;;2.83;;
1753;SDS011;58380;48.312;9.246;2024-03-23T10:53:33;9.88;;;3.85;;
1753;SDS011;58380;48.312;9.246;2024-03-23T10:56:35;11.55;;;3.40;;
1753;SDS011;58380;48.312;9.246;2024-03-23T10:59:40;8.57;;;2.92;;
1753;SDS011;58380;48.312;9.246;2024-03-23T11:02:41;9.35;;;3.20;;
1753;SDS011;58380;48.312;9.246;2024-03-23T11:05:48;9.70;;;2.72;;
1753;SDS011;58380;48.312;9.246;2024-03-23T11:08:49;9.20;;;2.92;;
1753;SDS011;58380;48.312;9.246;2024-03-23T11:11:49;9.15;;;2.72;;
1753;SDS011;58380;48.312;9.246;2024-03-23T11:14:50;6.25;;;2.45;;
1753;SDS011;58380;48.312;9.246;2024-03-23T11:21:04;7.15;;;2.45;;
1753;SDS011;58380;48.312;9.246;2024-03-23T11:24:13;9.02;;;2.58;;
1753;SDS011;58380;48.312;9.246;2024-03-23T11:27:18;6.03;;;2.13;;
1753;SDS011;58380;48.312;9.246;2024-03-23T11:33:22;2.95;;;1.38;;
1753;SDS011;58380;48.312;9.246;2024-03-23T11:36:23;4.82;;;1.70;;
1753;SDS011;58380;48.312;9.246;2024-03-23T11:39:23;3.83;;;1.42;;
1753;SDS011;58380;48.312;9.246;2024-03-23T11:42:24;2.85;;;1.50;;
1753;SDS011;58380;48.312;9.246;2024-03-23T11:45:24;3.58;;;1.40;;
1753;SDS011;58380;48.312;9.246;2024-03-23T11:48:25;2.47;;;1.15;;
1753;SDS011;58380;48.312;9.246;2024-03-23T11:51:27;3.92;;;1.27;;
1753;SDS011;58380;48.312;9.246;2024-03-23T11:54:34;1.85;;;0.85;;
1753;SDS011;58380;48.312;9.246;2024-03-23T11:57:35;5.00;;;1.30;;
1753;SDS011;58380;48.312;9.246;2024-03-23T12:00:35;3.67;;;1.35;;
1753;SDS011;58380;48.312;9.246;2024-03-23T12:03:36;5.50;;;1.80;;
1753;SDS011;58380;48.312;9.246;2024-03-23T12:06:36;3.80;;;1.33;;
1753;SDS011;58380;48.312;9.246;2024-03-23T12:09:37;2.35;;;1.10;;
1753;SDS011;58380;48.312;9.246;2024-03-23T12:12:37;4.25;;;1.63;;
1753;SDS011;58380;48.312;9.246;2024-03-23T12:15:38;2.92;;;1.50;;
1753;SDS011;58380;48.312;9.246;2024-03-23T12:18:39;4.78;;;1.38;;
1753;SDS011;58380;48.312;9.246;2024-03-23T12:21:45;2.22;;;0.93;;
1753;SDS011;58380;48.312;9.246;2024-03-23T12:24:45;4.35;;;1.40;;
1753;SDS011;58380;48.312;9.246;2024-03-23T12:27:45;4.00;;;1.27;;
1753;SDS011;58380;48.312;9.246;2024-03-23T12:30:46;3.88;;;1.55;;
1753;SDS011;58380;48.312;9.246;2024-03-23T12:33:46;3.95;;;1.40;;
1753;SDS011;58380;48.312;9.246;2024-03-23T12:36:46;6.47;;;2.22;;
1753;SDS011;58380;48.312;9.246;2024-03-23T12:39:47;6.75;;;2.47;;
1753;SDS011;58380;48.312;9.246;2024-03-23T12:42:47;5.57;;;2.33;;
1753;SDS011;58380;48.312;9.246;2024-03-23T12:45:48;13.10;;;3.17;;
1753;SDS011;58380;48.312;9.246;2024-03-23T12:48:49;7.78;;;3.05;;
1753;SDS011;58380;48.312;9.246;2024-03-23T12:51:53;11.85;;;2.85;;
1753;SDS011;58380;48.312;9.246;2024-03-23T12:54:56;7.57;;;3.20;;
1753;SDS011;58380;48.312;9.246;2024-03-23T12:57:56;12.93;;;3.80;;
1753;SDS011;58380;48.312;9.246;2024-03-23T13:00:57;7.85;;;2.70;;
1753;SDS011;58380;48.312;9.246;2024-03-23T13:03:59;6.30;;;2.47;;
1753;SDS011;58380;48.312;9.246;2024-03-23T13:07:00;8.68;;;3.00;;
1753;SDS011;58380;48.312;9.246;2024-03-23T13:10:01;6.75;;;2.15;;
1753;SDS011;58380;48.312;9.246;2024-03-23T13:13:02;11.20;;;3.10;;
1753;SDS011;58380;48.312;9.246;2024-03-23T13:16:02;6.90;;;2.53;;
1753;SDS011;58380;48.312;9.246;2024-03-23T13:19:04;6.97;;;2.70;;
1753;SDS011;58380;48.312;9.246;2024-03-23T13:22:04;6.07;;;2.47;;
1753;SDS011;58380;48.312;9.246;2024-03-23T13:25:05;8.10;;;2.22;;
1753;SDS011;58380;48.312;9.246;2024-03-23T13:28:06;7.25;;;2.40;;
1753;SDS011;58380;48.312;9.246;2024-03-23T13:31:07;4.25;;;2.17;;
1753;SDS011;58380;48.312;9.246;2024-03-23T13:34:08;7.30;;;1.90;;
1753;SDS011;58380;48.312;9.246;2024-03-23T13:37:09;7.55;;;2.10;;
1753;SDS011;58380;48.312;9.246;2024-03-23T13:40:10;5.90;;;1.88;;
1753;SDS011;58380;48.312;9.246;2024-03-23T13:43:11;7.75;;;2.25;;
1753;SDS011;58380;48.312;9.246;2024-03-23T13:46:11;4.82;;;1.85;;
1753;SDS011;58380;48.312;9.246;2024-03-23T13:52:26;4.78;;;1.65;;
1753;SDS011;58380;48.312;9.246;2024-03-23T13:55:27;4.47;;;1.52;;
1753;SDS011;58380;48.312;9.246;2024-03-23T13:58:27;4.65;;;1.45;;
1753;SDS011;58380;48.312;9.246;2024-03-23T14:01:28;7.25;;;2.08;;
1753;SDS011;58380;48.312;9.246;2024-03-23T14:04:28;6.80;;;1.70;;
1753;SDS011;58380;48.312;9.246;2024-03-23T14:07:29;7.85;;;1.85;;
1753;SDS011;58380;48.312;9.246;2024-03-23T14:10:29;9.77;;;1.88;;
1753;SDS011;58380;48.312;9.246;2024-03-23T14:13:30;6.00;;;1.75;;
1753;SDS011;58380;48.312;9.246;2024-03-23T14:16:31;4.13;;;1.20;;
1753;SDS011;58380;48.312;9.246;2024-03-23T14:19:31;6.05;;;1.45;;
1753;SDS011;58380;48.312;9.246;2024-03-23T14:22:32;3.72;;;0.90;;
1753;SDS011;58380;48.312;9.246;2024-03-23T14:25:32;4.63;;;1.13;;
1753;SDS011;58380;48.312;9.246;2024-03-23T14:28:32;5.32;;;1.35;;
1753;SDS011;58380;48.312;9.246;2024-03-23T14:31:34;5.70;;;1.20;;
1753;SDS011;58380;48.312;9.246;2024-03-23T14:34:34;3.33;;;1.17;;
1753;SDS011;58380;48.312;9.246;2024-03-23T14:37:35;3.70;;;1.00;;
1753;SDS011;58380;48.312;9.246;2024-03-23T14:40:37;3.97;;;1.20;;
1753;SDS011;58380;48.312;9.246;2024-03-23T14:43:38;2.03;;;1.00;;
1753;SDS011;58380;48.312;9.246;2024-03-23T14:46:38;5.03;;;1.20;;
1753;SDS011;58380;48.312;9.246;2024-03-23T14:49:39;3.20;;;0.90;;
1753;SDS011;58380;48.312;9.246;2024-03-23T14:52:39;4.47;;;0.98;;
1753;SDS011;58380;48.312;9.246;2024-03-23T14:55:40;5.88;;;1.08;;
1753;SDS011;58380;48.312;9.246;2024-03-23T14:58:52;4.65;;;1.10;;
1753;SDS011;58380;48.312;9.246;2024-03-23T15:01:52;4.72;;;1.38;;
1753;SDS011;58380;48.312;9.246;2024-03-23T15:04:53;4.50;;;1.10;;
1753;SDS011;58380;48.312;9.246;2024-03-23T15:07:54;5.35;;;1.38;;
1753;SDS011;58380;48.312;9.246;2024-03-23T15:10:54;3.95;;;1.20;;
1753;SDS011;58380;48.312;9.246;2024-03-23T15:13:58;3.17;;;0.77;;
1753;SDS011;58380;48.312;9.246;2024-03-23T15:16:58;5.50;;;0.90;;
1753;SDS011;58380;48.312;9.246;2024-03-23T15:19:59;5.32;;;1.23;;
1753;SDS011;58380;48.312;9.246;2024-03-23T15:22:59;4.28;;;1.13;;
1753;SDS011;58380;48.312;9.246;2024-03-23T15:26:00;3.55;;;1.05;;
1753;SDS011;58380;48.312;9.246;2024-03-23T15:29:02;3.67;;;1.00;;
1753;SDS011;58380;48.312;9.246;2024-03-23T15:32:02;3.45;;;1.02;;
1753;SDS011;58380;48.312;9.246;2024-03-23T15:35:04;2.58;;;0.95;;
1753;SDS011;58380;48.312;9.246;2024-03-23T15:38:07;2.85;;;1.23;;
1753;SDS011;58380;48.312;9.246;2024-03-23T15:41:07;4.22;;;0.82;;
1753;SDS011;58380;48.312;9.246;2024-03-23T15:44:08;2.35;;;0.82;;
1753;SDS011;58380;48.312;9.246;2024-03-23T15:47:08;1.33;;;0.90;;
1753;SDS011;58380;48.312;9.246;2024-03-23T15:50:09;1.98;;;0.70;;
1753;SDS011;58380;48.312;9.246;2024-03-23T15:53:09;3.05;;;0.98;;
1753;SDS011;58380;48.312;9.246;2024-03-23T15:56:10;5.60;;;2.13;;
1753;SDS011;58380;48.312;9.246;2024-03-23T15:59:10;4.38;;;1.17;;
1753;SDS011;58380;48.312;9.246;2024-03-23T16:02:10;2.88;;;1.10;;
1753;SDS011;58380;48.312;9.246;2024-03-23T16:05:11;6.50;;;1.98;;
1753;SDS011;58380;48.312;9.246;2024-03-23T16:08:11;5.53;;;1.73;;
1753;SDS011;58380;48.312;9.246;2024-03-23T16:11:12;6.05;;;2.20;;
1753;SDS011;58380;48.312;9.246;2024-03-23T16:14:12;9.57;;;1.95;;
1753;SDS011;58380;48.312;9.246;2024-03-23T16:17:12;5.15;;;2.15;;
1753;SDS011;58380;48.312;9.246;2024-03-23T16:20:13;2.85;;;1.48;;
1753;SDS011;58380;48.312;9.246;2024-03-23T16:23:13;5.72;;;1.95;;
1753;SDS011;58380;48.312;9.246;2024-03-23T16:26:14;3.22;;;0.80;;
1753;SDS011;58380;48.312;9.246;2024-03-23T16:29:16;1.65;;;0.90;;
1753;SDS011;58380;48.312;9.246;2024-03-23T16:32:17;3.05;;;1.00;;
1753;SDS011;58380;48.312;9.246;2024-03-23T16:35:18;4.07;;;1.00;;
1753;SDS011;58380;48.312;9.246;2024-03-23T16:38:19;5.10;;;1.45;;
1753;SDS011;58380;48.312;9.246;2024-03-23T16:41:19;3.60;;;1.58;;
1753;SDS011;58380;48.312;9.246;2024-03-23T16:44:19;6.97;;;1.77;;
1753;SDS011;58380;48.312;9.246;2024-03-23T16:47:21;8.32;;;2.33;;
1753;SDS011;58380;48.312;9.246;2024-03-23T16:50:21;7.72;;;2.70;;
1753;SDS011;58380;48.312;9.246;2024-03-23T16:53:21;5.22;;;2.17;;
1753;SDS011;58380;48.312;9.246;2024-03-23T16:56:22;6.68;;;2.47;;
1753;SDS011;58380;48.312;9.246;2024-03-23T16:59:23;9.63;;;3.47;;
1753;SDS011;58380;48.312;9.246;2024-03-23T17:02:24;7.68;;;2.58;;
1753;SDS011;58380;48.312;9.246;2024-03-23T17:05:24;6.63;;;2.35;;
1753;SDS011;58380;48.312;9.246;2024-03-23T17:08:25;7.30;;;2.33;;
1753;SDS011;58380;48.312;9.246;2024-03-23T17:11:25;6.40;;;2.65;;
1753;SDS011;58380;48.312;9.246;2024-03-23T17:14:26;7.28;;;2.67;;
1753;SDS011;58380;48.312;9.246;2024-03-23T17:17:26;7.30;;;1.95;;
1753;SDS011;58380;48.312;9.246;2024-03-23T17:20:27;7.93;;;2.30;;
1753;SDS011;58380;48.312;9.246;2024-03-23T17:23:28;4.65;;;1.48;;
1753;SDS011;58380;48.312;9.246;2024-03-23T17:26:32;3.10;;;1.38;;
1753;SDS011;58380;48.312;9.246;2024-03-23T17:29:33;3.75;;;1.80;;
1753;SDS011;58380;48.312;9.246;2024-03-23T17:32:33;6.45;;;1.90;;
1753;SDS011;58380;48.312;9.246;2024-03-23T17:35:33;5.53;;;2.22;;
1753;SDS011;58380;48.312;9.246;2024-03-23T17:38:34;4.72;;;2.03;;
1753;SDS011;58380;48.312;9.246;2024-03-23T17:41:36;7.53;;;3.13;;
1753;SDS011;58380;48.312;9.246;2024-03-23T17:44:37;5.35;;;1.77;;
1753;SDS011;58380;48.312;9.246;2024-03-23T17:47:37;5.05;;;1.05;;
1753;SDS011;58380;48.312;9.246;2024-03-23T17:50:38;3.60;;;1.20;;
1753;SDS011;58380;48.312;9.246;2024-03-23T17:53:39;4.25;;;0.95;;
1753;SDS011;58380;48.312;9.246;2024-03-23T17:56:40;4.60;;;1.60;;
1753;SDS011;58380;48.312;9.246;2024-03-23T17:59:40;5.55;;;2.28;;
1753;SDS011;58380;48.312;9.246;2024-03-23T18:02:40;5.75;;;1.63;;
1753;SDS011;58380;48.312;9.246;2024-03-23T18:05:42;4.00;;;1.55;;
1753;SDS011;58380;48.312;9.246;2024-03-23T18:08:43;4.97;;;2.40;;
1753;SDS011;58380;48.312;9.246;2024-03-23T18:11:43;7.03;;;3.20;;
1753;SDS011;58380;48.312;9.246;2024-03-23T18:14:44;2.00;;;0.90;;
1753;SDS011;58380;48.312;9.246;2024-03-23T18:17:44;5.95;;;1.70;;
1753;SDS011;58380;48.312;9.246;2024-03-23T18:20:44;4.30;;;1.88;;
1753;SDS011;58380;48.312;9.246;2024-03-23T18:23:46;3.17;;;1.08;;
1753;SDS011;58380;48.312;9.246;2024-03-23T18:26:48;4.93;;;2.00;;
1753;SDS011;58380;48.312;9.246;2024-03-23T18:29:49;1.92;;;1.00;;
1753;SDS011;58380;48.312;9.246;2024-03-23T18:32:49;2.35;;;1.20;;
1753;SDS011;58380;48.312;9.246;2024-03-23T18:35:50;4.28;;;1.15;;
1753;SDS011;58380;48.312;9.246;2024-03-23T18:38:51;4.30;;;1.00;;
1753;SDS011;58380;48.312;9.246;2024-03-23T18:41:52;3.58;;;0.88;;
1753;SDS011;58380;48.312;9.246;2024-03-23T18:44:53;3.17;;;1.38;;
1753;SDS011;58380;48.312;9.246;2024-03-23T18:47:53;2.50;;;1.25;;
1753;SDS011;58380;48.312;9.246;2024-03-23T18:50:53;1.80;;;0.90;;
1753;SDS011;58380;48.312;9.246;2024-03-23T18:53:55;1.70;;;0.75;;
1753;SDS011;58380;48.312;9.246;2024-03-23T18:57:01;1.65;;;0.93;;
1753;SDS011;58380;48.312;9.246;2024-03-23T19:00:02;3.20;;;0.90;;
1753;SDS011;58380;48.312;9.246;2024-03-23T19:03:02;4.32;;;1.23;;
1753;SDS011;58380;48.312;9.246;2024-03-23T19:06:03;3.28;;;1.10;;
1753;SDS011;58380;48.312;9.246;2024-03-23T19:09:04;1.65;;;0.90;;
1753;SDS011;58380;48.312;9.246;2024-03-23T19:12:04;6.82;;;2.83;;
1753;SDS011;58380;48.312;9.246;2024-03-23T19:15:09;3.55;;;1.63;;
1753;SDS011;58380;48.312;9.246;2024-03-23T19:18:09;3.95;;;1.60;;
1753;SDS011;58380;48.312;9.246;2024-03-23T19:21:10;2.80;;;1.40;;
1753;SDS011;58380;48.312;9.246;2024-03-23T19:24:10;2.28;;;1.08;;
1753;SDS011;58380;48.312;9.246;2024-03-23T19:27:11;4.18;;;1.35;;
1753;SDS011;58380;48.312;9.246;2024-03-23T19:30:11;3.45;;;1.05;;
1753;SDS011;58380;48.312;9.246;2024-03-23T19:33:12;3.42;;;1.10;;
1753;SDS011;58380;48.312;9.246;2024-03-23T19:36:12;3.42;;;1.60;;
1753;SDS011;58380;48.312;9.246;2024-03-23T19:39:13;6.38;;;3.28;;
1753;SDS011;58380;48.312;9.246;2024-03-23T19:42:13;3.80;;;2.45;;
1753;SDS011;58380;48.312;9.246;2024-03-23T19:45:15;4.88;;;2.78;;
1753;SDS011;58380;48.312;9.246;2024-03-23T19:48:16;6.63;;;1.90;;
1753;SDS011;58380;48.312;9.246;2024-03-23T19:51:17;7.65;;;3.10;;
1753;SDS011;58380;48.312;9.246;2024-03-23T19:54:17;9.23;;;4.05;;
1753;SDS011;58380;48.312;9.246;2024-03-23T19:57:18;6.07;;;2.28;;
1753;SDS011;58380;48.312;9.246;2024-03-23T20:00:18;4.95;;;1.50;;
1753;SDS011;58380;48.312;9.246;2024-03-23T20:03:19;4.97;;;1.90;;
1753;SDS011;58380;48.312;9.246;2024-03-23T20:06:20;5.00;;;1.50;;
1753;SDS011;58380;48.312;9.246;2024-03-23T20:09:20;2.70;;;1.05;;
1753;SDS011;58380;48.312;9.246;2024-03-23T20:12:21;4.40;;;1.30;;
1753;SDS011;58380;48.312;9.246;2024-03-23T20:15:21;4.10;;;1.40;;
1753;SDS011;58380;48.312;9.246;2024-03-23T20:18:22;4.20;;;1.48;;
1753;SDS011;58380;48.312;9.246;2024-03-23T20:21:22;3.25;;;1.30;;
1753;SDS011;58380;48.312;9.246;2024-03-23T20:24:24;4.65;;;1.13;;
1753;SDS011;58380;48.312;9.246;2024-03-23T20:27:26;3.03;;;1.40;;
1753;SDS011;58380;48.312;9.246;2024-03-23T20:30:27;4.00;;;1.63;;
1753;SDS011;58380;48.312;9.246;2024-03-23T20:33:28;3.97;;;1.27;;
1753;SDS011;58380;48.312;9.246;2024-03-23T20:36:28;5.43;;;1.88;;
1753;SDS011;58380;48.312;9.246;2024-03-23T20:39:29;2.45;;;1.30;;
1753;SDS011;58380;48.312;9.246;2024-03-23T20:42:29;5.03;;;2.00;;
1753;SDS011;58380;48.312;9.246;2024-03-23T20:45:30;3.80;;;1.27;;
1753;SDS011;58380;48.312;9.246;2024-03-23T20:48:31;1.15;;;0.73;;
1753;SDS011;58380;48.312;9.246;2024-03-23T20:51:33;2.60;;;0.90;;
1753;SDS011;58380;48.312;9.246;2024-03-23T20:54:34;1.88;;;1.20;;
1753;SDS011;58380;48.312;9.246;2024-03-23T20:57:34;5.38;;;2.05;;
1753;SDS011;58380;48.312;9.246;2024-03-23T21:00:35;5.22;;;2.50;;
1753;SDS011;58380;48.312;9.246;2024-03-23T21:03:35;5.95;;;2.83;;
1753;SDS011;58380;48.312;9.246;2024-03-23T21:06:36;5.68;;;1.35;;
1753;SDS011;58380;48.312;9.246;2024-03-23T21:09:37;2.38;;;1.00;;
1753;SDS011;58380;48.312;9.246;2024-03-23T21:12:38;5.65;;;1.75;;
1753;SDS011;58380;48.312;9.246;2024-03-23T21:15:44;2.45;;;1.40;;
1753;SDS011;58380;48.312;9.246;2024-03-23T21:18:59;5.07;;;2.15;;
1753;SDS011;58380;48.312;9.246;2024-03-23T21:22:00;2.88;;;1.63;;
1753;SDS011;58380;48.312;9.246;2024-03-23T21:25:02;2.67;;;1.30;;
1753;SDS011;58380;48.312;9.246;2024-03-23T21:28:03;3.17;;;1.13;;
1753;SDS011;58380;48.312;9.246;2024-03-23T21:31:04;3.13;;;1.10;;
1753;SDS011;58380;48.312;9.246;2024-03-23T21:34:05;1.42;;;0.70;;
1753;SDS011;58380;48.312;9.246;2024-03-23T21:37:05;2.20;;;0.80;;
1753;SDS011;58380;48.312;9.246;2024-03-23T21:40:06;1.60;;;1.00;;
1753;SDS011;58380;48.312;9.246;2024-03-23T21:43:09;2.53;;;1.10;;
1753;SDS011;58380;48.312;9.246;2024-03-23T21:46:09;1.73;;;0.80;;
1753;SDS011;58380;48.312;9.246;2024-03-23T21:49:09;0.98;;;0.47;;
1753;SDS011;58380;48.312;9.246;2024-03-23T21:52:10;1.42;;;0.70;;
1753;SDS011;58380;48.312;9.246;2024-03-23T21:55:10;1.52;;;0.77;;
1753;SDS011;58380;48.312;9.246;2024-03-23T21:58:11;14.35;;;5.53;;
1753;SDS011;58380;48.312;9.246;2024-03-23T22:01:11;8.02;;;2.97;;
1753;SDS011;58380;48.312;9.246;2024-03-23T22:04:12;13.73;;;4.72;;
1753;SDS011;58380;48.312;9.246;2024-03-23T22:07:13;10.07;;;4.00;;
1753;SDS011;58380;48.312;9.246;2024-03-23T22:10:13;7.32;;;3.05;;
1753;SDS011;58380;48.312;9.246;2024-03-23T22:13:14;7.30;;;3.20;;
1753;SDS011;58380;48.312;9.246;2024-03-23T22:16:15;2.47;;;1.20;;
1753;SDS011;58380;48.312;9.246;2024-03-23T22:19:16;3.70;;;1.20;;
1753;SDS011;58380;48.312;9.246;2024-03-23T22:22:16;9.75;;;4.18;;
1753;SDS011;58380;48.312;9.246;2024-03-23T22:25:16;6.30;;;2.78;;
1753;SDS011;58380;48.312;9.246;2024-03-23T22:28:17;8.43;;;3.85;;
1753;SDS011;58380;48.312;9.246;2024-03-23T22:31:22;3.45;;;1.70;;
1753;SDS011;58380;48.312;9.246;2024-03-23T22:34:22;5.28;;;2.35;;
1753;SDS011;58380;48.312;9.246;2024-03-23T22:37:22;3.70;;;1.92;;
1753;SDS011;58380;48.312;9.246;2024-03-23T22:40:23;3.40;;;1.92;;
1753;SDS011;58380;48.312;9.246;2024-03-23T22:43:24;3.08;;;1.50;;
